Time;durP1;ratioP1;P1;durP2;ratioP2;P2;SDS_P1;SDS_P2;PMS_P1;PMS_P2;Temp;Humidity;BMP_temperature;BMP_pressure;BME280_temperature;BME280_humidity;BME280_pressure;Samples;Min_cycle;Max_cycle;Signal;HPM_P1;HPM_P2
2022/03/27 00:01:58;;;;;;;5.53;1.95;;;17.70;78.60;;;;;;5015488;28;20048;-66
2022/03/27 00:04:23;;;;;;;4.50;2.20;;;17.80;81.30;;;;;;5032500;28;20395;-66
2022/03/27 00:06:49;;;;;;;5.43;2.00;;;;;;;;;;5032494;28;20042;-66
2022/03/27 00:09:15;;;;;;;6.13;2.10;;;17.60;81.10;;;;;;5032592;28;20488;-67
2022/03/27 00:11:41;;;;;;;6.40;2.10;;;17.80;81.20;;;;;;5032896;28;20137;-67
2022/03/27 00:14:07;;;;;;;6.10;2.30;;;17.70;81.20;;;;;;5033037;28;20042;-67
2022/03/27 00:16:33;;;;;;;5.70;2.08;;;17.80;81.40;;;;;;5016319;28;20054;-66
2022/03/27 00:18:59;;;;;;;7.60;2.20;;;17.60;78.30;;;;;;5018790;28;20442;-67
2022/03/27 00:21:25;;;;;;;6.97;2.40;;;;;;;;;;5032885;28;20026;-67
2022/03/27 00:23:52;;;;;;;6.70;2.15;;;17.70;81.20;;;;;;5032827;28;20456;-67
2022/03/27 00:26:18;;;;;;;8.40;2.53;;;17.90;81.30;;;;;;5032623;28;20085;-67
2022/03/27 00:28:44;;;;;;;5.97;2.05;;;17.80;81.00;;;;;;5027739;28;20408;-67
2022/03/27 00:31:10;;;;;;;7.80;2.30;;;17.60;81.00;;;;;;5031902;28;20042;-68
2022/03/27 00:33:37;;;;;;;6.35;2.28;;;17.60;81.00;;;;;;5017942;28;20050;-69
2022/03/27 00:36:05;;;;;;;6.57;2.10;;;17.70;78.30;;;;;;5036594;28;20091;-69
2022/03/27 00:38:32;;;;;;;6.65;1.98;;;17.70;81.10;;;;;;5019671;28;20038;-68
2022/03/27 00:40:58;;;;;;;7.05;2.53;;;17.30;77.80;;;;;;5031630;28;20041;-67
2022/03/27 00:43:24;;;;;;;9.55;2.75;;;;;;;;;;5036342;28;20052;-67
2022/03/27 00:45:50;;;;;;;6.38;1.95;;;17.60;80.90;;;;;;5036818;28;20403;-67
2022/03/27 00:48:19;;;;;;;6.43;2.40;;;17.80;78.30;;;;;;5018445;28;20060;-66
2022/03/27 00:50:46;;;;;;;8.70;2.47;;;17.70;80.90;;;;;;5033501;28;20045;-67
2022/03/27 00:53:11;;;;;;;6.50;2.03;;;17.90;81.20;;;;;;5035963;28;20508;-67
2022/03/27 00:55:38;;;;;;;7.57;2.08;;;17.70;80.90;;;;;;5036233;28;20097;-67
2022/03/27 00:58:04;;;;;;;6.22;2.15;;;17.60;80.90;;;;;;5035570;28;20040;-67
2022/03/27 01:00:38;;;;;;;7.32;2.40;;;17.60;80.90;;;;;;5036026;28;20089;-67
2022/03/27 01:03:12;;;;;;;6.50;2.10;;;17.80;80.80;;;;;;5018159;28;20050;-68
2022/03/27 01:05:38;;;;;;;6.47;2.20;;;17.70;80.80;;;;;;5035051;28;20115;-67
2022/03/27 01:08:08;;;;;;;8.48;2.60;;;17.60;80.90;;;;;;5024633;28;20045;-68
2022/03/27 01:10:34;;;;;;;6.25;2.17;;;17.70;78.20;;;;;;5035953;28;20049;-67
2022/03/27 01:13:16;;;;;;;6.00;2.20;;;17.70;80.90;;;;;;5018076;28;20050;-67
2022/03/27 01:15:45;;;;;;;6.03;2.27;;;17.50;80.70;;;;;;5027914;28;20407;-67
2022/03/27 01:18:12;;;;;;;8.43;2.35;;;17.50;80.70;;;;;;5035808;28;20388;-66
2022/03/27 01:20:41;;;;;;;6.75;2.83;;;17.90;80.90;;;;;;5035881;28;20056;-67
2022/03/27 01:23:09;;;;;;;8.02;2.80;;;17.50;80.70;;;;;;5030341;28;20065;-67
2022/03/27 01:25:35;;;;;;;7.47;2.67;;;17.50;80.80;;;;;;5027374;28;20382;-67
2022/03/27 01:28:01;;;;;;;7.22;2.85;;;17.60;78.00;;;;;;5035451;28;20053;-66
2022/03/27 01:30:27;;;;;;;8.40;2.80;;;17.70;80.80;;;;;;5016959;28;20042;-67
2022/03/27 01:32:54;;;;;;;5.80;2.90;;;17.80;81.10;;;;;;5035281;28;20099;-67
2022/03/27 01:35:20;;;;;;;9.48;3.65;;;17.60;80.70;;;;;;5035313;28;20049;-66
2022/03/27 01:37:49;;;;;;;7.78;2.90;;;17.70;80.90;;;;;;5017347;28;20551;-66
2022/03/27 01:40:15;;;;;;;8.57;2.80;;;17.80;78.10;;;;;;5029162;28;20494;-67
2022/03/27 01:42:41;;;;;;;5.90;2.72;;;17.70;80.70;;;;;;5027886;28;20060;-67
2022/03/27 01:45:09;;;;;;;8.00;2.83;;;18.00;81.30;;;;;;5017235;28;20399;-66
2022/03/27 01:47:36;;;;;;;6.05;2.65;;;17.90;80.80;;;;;;5035696;28;20136;-69
2022/03/27 01:50:02;;;;;;;6.80;3.10;;;17.50;80.90;;;;;;5034362;28;20053;-68
2022/03/27 01:52:28;;;;;;;6.28;2.63;;;17.60;78.00;;;;;;5017388;28;20045;-62
2022/03/27 01:54:54;;;;;;;6.88;2.97;;;17.30;80.50;;;;;;5025320;28;20148;-67
2022/03/27 01:57:20;;;;;;;6.45;2.88;;;17.60;80.60;;;;;;5029936;28;20116;-67
2022/03/27 01:59:46;;;;;;;6.15;2.70;;;17.40;80.50;;;;;;5026191;28;20049;-66
2022/03/27 02:02:11;;;;;;;6.57;2.92;;;17.60;80.70;;;;;;5015573;28;20041;-67
2022/03/27 02:04:37;;;;;;;6.25;2.78;;;17.20;80.40;;;;;;5035041;28;20132;-68
2022/03/27 02:07:03;;;;;;;5.65;2.40;;;17.60;80.60;;;;;;5017150;28;20116;-62
2022/03/27 02:09:29;;;;;;;6.25;2.92;;;17.60;77.90;;;;;;5034225;28;20041;-69
2022/03/27 02:11:55;;;;;;;4.68;2.47;;;17.40;80.60;;;;;;5035031;28;20103;-69
2022/03/27 02:14:21;;;;;;;6.43;2.60;;;17.50;80.60;;;;;;5029637;28;20060;-69
2022/03/27 02:16:47;;;;;;;4.32;2.33;;;17.40;80.50;;;;;;5033825;28;20484;-69
2022/03/27 02:19:12;;;;;;;5.53;2.38;;;17.40;80.40;;;;;;5034639;28;20083;-69
2022/03/27 02:21:39;;;;;;;4.97;2.35;;;17.50;80.50;;;;;;5034649;28;20049;-69
2022/03/27 02:24:05;;;;;;;5.47;2.20;;;17.60;80.50;;;;;;5029164;28;20037;-67
2022/03/27 02:26:32;;;;;;;6.07;2.60;;;;;;;;;;4997670;28;20551;-67
2022/03/27 02:28:57;;;;;;;6.07;2.40;;;17.40;77.70;;;;;;5033367;28;20046;-67
2022/03/27 02:31:23;;;;;;;5.88;2.40;;;17.70;80.50;;;;;;5033562;28;20048;-68
2022/03/27 02:33:49;;;;;;;4.78;2.13;;;17.40;80.60;;;;;;5027511;28;20060;-67
2022/03/27 02:36:16;;;;;;;5.40;2.83;;;;;;;;;;5015218;28;20046;-66
2022/03/27 02:38:42;;;;;;;6.57;2.33;;;17.40;80.40;;;;;;4998008;28;20560;-67
2022/03/27 02:41:08;;;;;;;7.10;2.42;;;17.30;77.50;;;;;;5014642;28;20504;-67
2022/03/27 02:43:38;;;;;;;6.20;2.55;;;17.20;80.20;;;;;;5015216;28;20053;-66
2022/03/27 02:46:04;;;;;;;6.10;2.70;;;17.30;80.20;;;;;;5000175;28;20093;-67
2022/03/27 02:48:30;;;;;;;6.10;2.60;;;17.50;80.40;;;;;;5027570;28;20040;-67
2022/03/27 02:50:56;;;;;;;5.55;2.30;;;17.30;80.30;;;;;;5027573;28;20037;-68
2022/03/27 02:53:22;;;;;;;4.88;2.33;;;;;;;;;;5030739;28;20034;-68
2022/03/27 02:55:48;;;;;;;6.60;2.85;;;;;;;;;;5015585;28;20125;-66
2022/03/27 02:58:14;;;;;;;4.43;2.10;;;17.20;80.20;;;;;;5032656;28;20045;-66
2022/03/27 03:00:41;;;;;;;5.75;2.58;;;17.40;80.30;;;;;;5043655;28;20048;-67
2022/03/27 03:03:10;;;;;;;4.70;2.40;;;17.30;80.40;;;;;;5033710;28;20083;-66
2022/03/27 03:05:40;;;;;;;4.93;2.42;;;17.10;80.30;;;;;;5012452;28;20042;-67
2022/03/27 03:08:11;;;;;;;6.20;2.80;;;17.20;80.30;;;;;;5002195;28;20088;-66
2022/03/27 03:10:38;;;;;;;7.25;2.63;;;17.30;80.40;;;;;;5034123;28;20138;-67
2022/03/27 03:13:05;;;;;;;7.72;2.92;;;17.20;80.20;;;;;;5015621;28;20054;-67
2022/03/27 03:15:30;;;;;;;5.78;2.67;;;17.30;78.80;;;;;;5033619;28;20399;-66
2022/03/27 03:17:56;;;;;;;5.30;2.25;;;17.30;80.30;;;;;;5033249;28;20049;-67
2022/03/27 03:20:22;;;;;;;6.20;2.95;;;17.10;80.30;;;;;;5034835;28;20064;-67
2022/03/27 03:22:48;;;;;;;5.18;2.30;;;17.10;80.10;;;;;;5022738;28;20117;-67
2022/03/27 03:25:14;;;;;;;4.82;2.20;;;17.10;80.20;;;;;;5016311;28;20045;-67
2022/03/27 03:27:40;;;;;;;6.40;2.30;;;17.10;80.30;;;;;;5011798;28;20492;-67
2022/03/27 03:30:07;;;;;;;5.28;2.35;;;17.40;80.30;;;;;;5028607;28;20045;-66
2022/03/27 03:32:34;;;;;;;5.88;2.53;;;17.20;80.20;;;;;;5034594;28;20096;-68
2022/03/27 03:35:01;;;;;;;4.35;2.30;;;17.30;77.60;;;;;;5033356;28;20081;-69
2022/03/27 03:37:26;;;;;;;5.55;2.33;;;17.10;80.20;;;;;;5033679;28;20049;-68
2022/03/27 03:39:52;;;;;;;4.00;1.90;;;17.00;77.30;;;;;;5021676;28;20040;-68
2022/03/27 03:42:18;;;;;;;4.25;2.13;;;17.10;80.10;;;;;;5032719;28;20045;-69
2022/03/27 03:44:44;;;;;;;5.53;2.30;;;;;;;;;;5035536;28;20479;-69
2022/03/27 03:47:10;;;;;;;5.75;2.78;;;17.20;77.50;;;;;;5024383;28;20476;-69
2022/03/27 03:49:37;;;;;;;4.32;2.13;;;17.00;80.00;;;;;;5025118;28;20043;-69
2022/03/27 03:52:04;;;;;;;5.10;2.45;;;17.10;80.10;;;;;;5034368;28;20132;-69
2022/03/27 03:54:30;;;;;;;4.85;2.30;;;17.40;80.30;;;;;;5018180;28;20046;-69
2022/03/27 03:56:55;;;;;;;5.60;2.30;;;17.00;80.20;;;;;;5019263;28;20049;-68
2022/03/27 03:59:21;;;;;;;7.60;2.83;;;17.00;77.30;;;;;;5025024;28;20041;-68
2022/03/27 04:01:47;;;;;;;4.45;2.08;;;;;;;;;;5032539;28;20136;-66
2022/03/27 04:04:13;;;;;;;6.50;2.65;;;17.20;77.50;;;;;;5034372;28;20064;-62
2022/03/27 04:06:38;;;;;;;5.78;2.30;;;17.20;80.20;;;;;;5033757;28;20050;-69
2022/03/27 04:09:04;;;;;;;6.10;2.63;;;17.10;80.20;;;;;;5036829;28;20060;-69
2022/03/27 04:11:30;;;;;;;5.63;2.15;;;17.10;80.10;;;;;;5036651;28;20048;-63
2022/03/27 04:13:56;;;;;;;6.78;2.35;;;17.10;80.10;;;;;;5034406;28;20049;-69
2022/03/27 04:16:21;;;;;;;6.57;2.10;;;16.90;80.40;;;;;;5023406;28;20479;-62
2022/03/27 04:18:47;;;;;;;6.70;2.33;;;17.10;80.20;;;;;;5002520;28;20137;-70
2022/03/27 04:21:13;;;;;;;5.22;2.20;;;17.00;80.10;;;;;;5027860;28;20046;-68
2022/03/27 04:23:38;;;;;;;5.78;2.25;;;17.10;80.30;;;;;;5036499;28;20048;-69
2022/03/27 04:26:04;;;;;;;5.18;2.17;;;17.10;80.20;;;;;;5018687;28;20124;-69
2022/03/27 04:28:30;;;;;;;5.28;2.17;;;17.20;80.20;;;;;;5036865;28;20120;-68
2022/03/27 04:30:56;;;;;;;5.30;2.20;;;17.10;77.40;;;;;;5024345;28;20049;-67
2022/03/27 04:33:22;;;;;;;5.05;1.92;;;17.00;80.10;;;;;;5036272;28;20476;-68
2022/03/27 04:35:47;;;;;;;5.10;2.08;;;16.90;77.30;;;;;;5044005;28;20045;-67
2022/03/27 04:38:13;;;;;;;6.13;2.20;;;17.20;80.20;;;;;;5053712;28;20050;-68
2022/03/27 04:40:40;;;;;;;6.38;2.40;;;;;;;;;;5035703;28;20064;-68
2022/03/27 04:43:05;;;;;;;6.78;2.10;;;17.00;77.30;;;;;;5036593;28;20053;-68
2022/03/27 04:45:32;;;;;;;6.90;2.13;;;;;;;;;;5036800;28;20052;-68
2022/03/27 04:47:58;;;;;;;4.90;2.30;;;;;;;;;;5024060;28;20042;-66
2022/03/27 04:50:23;;;;;;;4.35;2.00;;;17.20;80.20;;;;;;5035942;28;20127;-69
2022/03/27 04:52:49;;;;;;;5.95;1.95;;;16.80;77.10;;;;;;5036819;28;20486;-69
2022/03/27 04:55:15;;;;;;;6.70;2.10;;;;;;;;;;5035434;28;20131;-66
2022/03/27 04:57:41;;;;;;;5.15;1.90;;;17.00;80.00;;;;;;5048815;28;20402;-68
2022/03/27 05:00:14;;;;;;;4.20;1.83;;;16.80;77.20;;;;;;5037071;28;20055;-67
2022/03/27 05:02:41;;;;;;;3.75;1.60;;;16.90;80.00;;;;;;5035955;28;20040;-67
2022/03/27 05:05:08;;;;;;;4.75;2.00;;;17.00;80.30;;;;;;5005414;28;20093;-68
2022/03/27 05:07:36;;;;;;;3.45;1.73;;;16.90;79.90;;;;;;5029104;28;20052;-69
2022/03/27 05:10:03;;;;;;;4.38;1.70;;;16.90;80.00;;;;;;5044448;28;20045;-68
2022/03/27 05:12:28;;;;;;;4.40;1.90;;;16.90;80.00;;;;;;5035908;28;20049;-70
2022/03/27 05:14:54;;;;;;;3.60;2.00;;;17.20;80.00;;;;;;5035613;28;20128;-68
2022/03/27 05:17:20;;;;;;;4.88;1.95;;;17.00;80.00;;;;;;5035150;28;20061;-64
2022/03/27 05:19:46;;;;;;;4.15;1.55;;;16.80;79.90;;;;;;5035576;28;20121;-68
2022/03/27 05:22:11;;;;;;;4.53;1.77;;;16.80;79.90;;;;;;5028317;28;20077;-67
2022/03/27 05:24:37;;;;;;;3.38;1.45;;;16.50;79.70;;;;;;5035677;28;20084;-68
2022/03/27 05:27:03;;;;;;;4.00;1.30;;;16.90;80.10;;;;;;5026935;28;20398;-69
2022/03/27 05:29:28;;;;;;;4.15;1.60;;;16.50;79.70;;;;;;5036381;28;20044;-67
2022/03/27 05:31:55;;;;;;;4.72;2.20;;;16.80;80.00;;;;;;5035008;28;20048;-66
2022/03/27 05:34:21;;;;;;;4.03;1.75;;;16.60;79.70;;;;;;5035538;28;20045;-66
2022/03/27 05:36:46;;;;;;;5.22;1.75;;;16.80;77.10;;;;;;5035597;28;20099;-67
2022/03/27 05:39:13;;;;;;;7.00;2.15;;;17.00;80.00;;;;;;5031881;28;20049;-67
2022/03/27 05:41:39;;;;;;;5.72;1.70;;;16.60;80.00;;;;;;5017724;28;20479;-68
2022/03/27 05:44:05;;;;;;;5.28;1.90;;;17.00;80.00;;;;;;5000493;28;20191;-66
2022/03/27 05:46:31;;;;;;;7.70;1.75;;;16.70;79.80;;;;;;5035735;28;20083;-68
2022/03/27 05:48:56;;;;;;;7.43;2.25;;;16.80;77.10;;;;;;5035137;28;20104;-69
2022/03/27 05:51:22;;;;;;;5.68;1.98;;;16.80;79.90;;;;;;5018865;28;20049;-68
2022/03/27 05:53:48;;;;;;;4.65;2.08;;;16.60;79.70;;;;;;5034406;28;20038;-67
2022/03/27 05:56:14;;;;;;;5.93;2.03;;;16.80;79.90;;;;;;5020988;28;20049;-68
2022/03/27 05:58:39;;;;;;;6.25;1.88;;;16.90;79.90;;;;;;5028027;28;20034;-67
2022/03/27 06:01:05;;;;;;;6.28;2.28;;;16.70;76.90;;;;;;5040820;28;20080;-67
2022/03/27 06:03:32;;;;;;;7.20;2.00;;;17.00;79.80;;;;;;5034753;28;20077;-66
2022/03/27 06:05:58;;;;;;;5.93;1.98;;;;;;;;;;5034989;28;20053;-67
2022/03/27 06:08:25;;;;;;;9.10;2.05;;;17.10;79.80;;;;;;5029774;28;20100;-67
2022/03/27 06:10:51;;;;;;;10.73;2.75;;;17.00;79.70;;;;;;5010136;28;20506;-66
2022/03/27 06:13:17;;;;;;;8.68;2.30;;;17.00;79.80;;;;;;5026397;28;20053;-67
2022/03/27 06:15:43;;;;;;;8.10;2.92;;;17.00;79.70;;;;;;5034271;28;20069;-69
2022/03/27 06:18:10;;;;;;;6.18;2.10;;;16.80;79.60;;;;;;5034370;28;20096;-69
2022/03/27 06:20:36;;;;;;;6.85;2.08;;;17.00;79.70;;;;;;5035200;28;20037;-68
2022/03/27 06:23:03;;;;;;;5.93;2.15;;;17.10;79.60;;;;;;5044881;28;20106;-68
2022/03/27 06:25:29;;;;;;;6.88;2.25;;;16.90;79.50;;;;;;5038405;28;20088;-67
2022/03/27 06:27:56;;;;;;;6.43;2.05;;;16.80;79.40;;;;;;5034261;28;20456;-67
2022/03/27 06:30:24;;;;;;;8.02;2.72;;;17.10;76.40;;;;;;5014003;28;20081;-69
2022/03/27 06:32:53;;;;;;;8.60;2.50;;;;;;;;;;5036742;28;20103;-67
2022/03/27 06:35:21;;;;;;;10.85;2.65;;;17.10;79.60;;;;;;5033466;28;20037;-66
2022/03/27 06:37:47;;;;;;;10.63;2.40;;;17.20;79.60;;;;;;5034557;28;20499;-67
2022/03/27 06:40:14;;;;;;;10.52;2.75;;;17.20;79.60;;;;;;5034426;28;20073;-66
2022/03/27 06:42:40;;;;;;;7.25;2.10;;;;;;;;;;5033617;28;20052;-66
2022/03/27 06:45:07;;;;;;;7.22;2.70;;;17.30;79.50;;;;;;5029780;28;20092;-66
2022/03/27 06:47:33;;;;;;;8.60;2.53;;;17.20;79.50;;;;;;5013430;28;20056;-66
2022/03/27 06:49:59;;;;;;;8.57;2.53;;;17.10;76.70;;;;;;5034057;28;20045;-67
2022/03/27 06:52:26;;;;;;;14.55;3.08;;;17.10;79.40;;;;;;5034202;28;20192;-66
2022/03/27 06:54:53;;;;;;;12.07;2.90;;;17.00;80.00;;;;;;5023334;28;20048;-66
2022/03/27 06:57:20;;;;;;;9.77;3.15;;;17.20;79.40;;;;;;5040496;28;20045;-66
2022/03/27 07:05:15;;;;;;;10.90;2.75;;;17.30;79.50;;;;;;5024482;28;20045;-67
2022/03/27 07:07:42;;;;;;;10.88;3.03;;;17.50;79.60;;;;;;5033818;28;20403;-67
2022/03/27 07:10:12;;;;;;;10.90;3.22;;;17.20;79.90;;;;;;5015600;28;20049;-66
2022/03/27 07:12:38;;;;;;;17.08;4.18;;;17.40;79.60;;;;;;5033848;28;20050;-66
2022/03/27 07:15:06;;;;;;;13.63;4.00;;;17.40;79.40;;;;;;5014894;28;20053;-64
2022/03/27 07:17:32;;;;;;;14.68;3.75;;;17.30;79.60;;;;;;5036832;28;20107;-66
2022/03/27 07:19:58;;;;;;;12.43;3.60;;;17.30;79.70;;;;;;5028824;28;20416;-67
2022/03/27 07:22:23;;;;;;;15.52;4.07;;;17.60;79.90;;;;;;5017816;28;20044;-66
2022/03/27 07:24:50;;;;;;;13.90;3.80;;;17.20;79.90;;;;;;5033047;28;20443;-68
2022/03/27 07:27:16;;;;;;;13.82;3.60;;;17.30;79.90;;;;;;5037041;28;20045;-66
2022/03/27 07:29:42;;;;;;;15.65;3.65;;;17.00;80.00;;;;;;5033117;28;20045;-69
2022/03/27 07:32:09;;;;;;;15.07;4.22;;;17.20;76.50;;;;;;5032987;28;20565;-69
2022/03/27 07:34:35;;;;;;;13.57;3.97;;;17.50;80.30;;;;;;5033195;28;20049;-66
2022/03/27 07:37:01;;;;;;;9.85;3.72;;;17.50;80.00;;;;;;5020101;28;20069;-63
2022/03/27 07:39:27;;;;;;;15.68;3.83;;;17.40;79.90;;;;;;5007459;28;20132;-65
2022/03/27 07:41:56;;;;;;;16.67;4.32;;;17.50;80.00;;;;;;5014750;28;20088;-63
2022/03/27 07:44:22;;;;;;;16.13;4.32;;;17.50;79.90;;;;;;5016178;28;20050;-63
2022/03/27 07:46:49;;;;;;;16.33;4.10;;;17.40;79.80;;;;;;5018564;28;20037;-63
2022/03/27 07:49:16;;;;;;;18.17;4.63;;;17.60;79.90;;;;;;5034123;28;20049;-67
2022/03/27 07:51:43;;;;;;;21.33;5.13;;;17.60;80.10;;;;;;5029775;28;20045;-63
2022/03/27 07:54:09;;;;;;;16.40;3.95;;;17.40;77.00;;;;;;5013526;28;20414;-65
2022/03/27 07:56:36;;;;;;;12.18;3.88;;;17.50;79.50;;;;;;5029822;28;20128;-61
2022/03/27 07:59:02;;;;;;;13.65;4.07;;;17.70;79.50;;;;;;5028535;28;20041;-63
2022/03/27 08:01:28;;;;;;;16.85;4.13;;;17.90;79.70;;;;;;5026065;28;20049;-62
2022/03/27 08:03:56;;;;;;;12.90;4.20;;;17.80;79.70;;;;;;5028708;28;20099;-62
2022/03/27 08:06:25;;;;;;;18.05;4.13;;;18.20;79.70;;;;;;5026631;28;20506;-67
2022/03/27 08:08:51;;;;;;;18.05;4.43;;;17.80;79.60;;;;;;5011777;28;20495;-67
2022/03/27 08:11:18;;;;;;;13.60;4.47;;;18.10;77.00;;;;;;5026431;28;20046;-66
2022/03/27 08:13:44;;;;;;;13.98;3.97;;;18.30;79.50;;;;;;5015876;28;20045;-64
2022/03/27 08:16:10;;;;;;;18.30;4.65;;;18.30;79.60;;;;;;5012751;28;20038;-64
2022/03/27 08:18:36;;;;;;;18.90;4.70;;;18.40;79.40;;;;;;5030664;28;20048;-63
2022/03/27 08:21:04;;;;;;;17.73;4.45;;;18.20;79.20;;;;;;5028443;28;20101;-62
2022/03/27 08:23:30;;;;;;;16.35;4.18;;;18.30;79.30;;;;;;5033058;28;20045;-63
2022/03/27 08:28:44;;;;;;;17.70;3.92;;;18.50;79.10;;;;;;5022409;28;20045;-63
2022/03/27 08:31:09;;;;;;;15.02;4.45;;;18.70;78.90;;;;;;5026548;28;20092;-66
2022/03/27 08:33:35;;;;;;;16.08;4.40;;;18.30;79.00;;;;;;5032943;28;20610;-66
2022/03/27 08:36:02;;;;;;;17.45;4.28;;;;;;;;;;5015709;28;20087;-66
2022/03/27 08:38:27;;;;;;;13.18;4.30;;;18.50;78.60;;;;;;5031699;28;20041;-66
2022/03/27 08:40:54;;;;;;;14.82;4.10;;;18.50;77.90;;;;;;5032884;28;20056;-65
2022/03/27 08:43:20;;;;;;;18.58;5.35;;;19.00;78.80;;;;;;5031255;28;20485;-65
2022/03/27 08:45:46;;;;;;;13.63;4.63;;;18.90;78.40;;;;;;5005230;28;20053;-63
2022/03/27 08:48:12;;;;;;;15.90;5.13;;;18.90;78.50;;;;;;5029163;28;20048;-63
2022/03/27 08:51:10;;;;;;;16.08;4.60;;;19.00;78.60;;;;;;5032730;28;20049;-69
2022/03/27 08:53:41;;;;;;;17.05;5.05;;;19.00;78.50;;;;;;5000067;28;20041;-63
2022/03/27 08:56:07;;;;;;;13.27;4.70;;;19.00;75.70;;;;;;5018353;28;20399;-64
2022/03/27 08:58:39;;;;;;;13.93;3.95;;;18.90;78.40;;;;;;5034882;28;20052;-62
2022/03/27 09:01:05;;;;;;;19.55;4.35;;;19.10;75.70;;;;;;5033989;28;20053;-62
2022/03/27 09:03:32;;;;;;;19.15;5.07;;;19.00;78.20;;;;;;5035782;28;20042;-62
2022/03/27 09:06:00;;;;;;;21.40;5.32;;;19.30;75.60;;;;;;5036264;28;20116;-63
2022/03/27 09:08:25;;;;;;;17.67;4.65;;;19.40;78.40;;;;;;5002121;28;20076;-68
2022/03/27 09:10:51;;;;;;;17.08;4.55;;;19.40;78.40;;;;;;5035764;28;20041;-62
2022/03/27 09:13:18;;;;;;;12.57;4.15;;;19.50;78.30;;;;;;5036474;28;20125;-62
2022/03/27 09:15:44;;;;;;;15.85;4.20;;;19.60;78.20;;;;;;5035868;28;20463;-63
2022/03/27 09:18:12;;;;;;;13.55;3.90;;;19.60;75.30;;;;;;5035999;28;20064;-63
2022/03/27 09:20:44;;;;;;;13.68;4.63;;;19.70;78.10;;;;;;5034364;28;20041;-62
2022/03/27 09:23:27;;;;;;;15.68;3.83;;;19.70;78.30;;;;;;5018315;28;20053;-62
2022/03/27 09:25:59;;;;;;;15.45;4.00;;;20.00;78.00;;;;;;5035672;28;20049;-62
2022/03/27 09:28:39;;;;;;;14.82;4.25;;;19.90;77.90;;;;;;5035882;28;20053;-63
2022/03/27 09:31:14;;;;;;;15.50;5.38;;;19.60;77.60;;;;;;5017146;28;20057;-62
2022/03/27 09:33:48;;;;;;;15.93;4.35;;;20.10;75.20;;;;;;5035434;28;20503;-61
2022/03/27 09:36:32;;;;;;;21.40;5.75;;;20.00;77.70;;;;;;5029265;28;20060;-63
2022/03/27 09:39:06;;;;;;;15.40;4.43;;;20.10;77.80;;;;;;4983268;28;20559;-63
2022/03/27 09:41:41;;;;;;;23.55;5.35;;;20.10;77.60;;;;;;5030858;28;20445;-62
2022/03/27 09:44:13;;;;;;;18.80;5.07;;;20.10;77.40;;;;;;5015804;28;20085;-62
2022/03/27 09:46:55;;;;;;;16.90;4.95;;;20.30;73.00;;;;;;5024472;28;20052;-66
2022/03/27 09:49:27;;;;;;;13.57;4.80;;;20.10;77.40;;;;;;5035833;28;20124;-61
2022/03/27 09:51:54;;;;;;;15.38;4.68;;;20.30;75.40;;;;;;5035309;28;20046;-62
2022/03/27 09:54:21;;;;;;;14.43;4.82;;;20.20;73.90;;;;;;5027957;28;20073;-63
2022/03/27 09:56:47;;;;;;;16.20;4.47;;;20.00;77.40;;;;;;5034771;28;20057;-63
2022/03/27 09:59:26;;;;;;;20.25;5.70;;;20.10;76.90;;;;;;5017398;28;20495;-62
2022/03/27 10:01:52;;;;;;;15.32;4.70;;;20.20;77.60;;;;;;5035159;28;20542;-62
2022/03/27 10:04:18;;;;;;;14.30;4.70;;;20.20;77.60;;;;;;5016591;28;20048;-66
2022/03/27 10:06:45;;;;;;;17.38;4.88;;;20.20;77.60;;;;;;5035238;28;20054;-66
2022/03/27 10:09:12;;;;;;;14.82;4.50;;;20.20;74.60;;;;;;5034616;28;20046;-65
2022/03/27 10:11:40;;;;;;;15.23;4.80;;;20.10;77.50;;;;;;5016255;28;20428;-66
2022/03/27 10:14:07;;;;;;;14.35;4.43;;;20.40;75.00;;;;;;5016943;28;20089;-66
2022/03/27 10:16:35;;;;;;;16.70;5.07;;;20.30;77.90;;;;;;5035936;28;20410;-66
2022/03/27 10:19:10;;;;;;;13.57;4.43;;;20.30;77.70;;;;;;5033935;28;20049;-66
2022/03/27 10:21:38;;;;;;;21.13;5.72;;;20.30;77.70;;;;;;5018040;28;20099;-66
2022/03/27 10:24:13;;;;;;;15.05;4.43;;;20.20;77.60;;;;;;5035184;28;20438;-67
2022/03/27 10:26:40;;;;;;;14.70;3.90;;;20.30;77.60;;;;;;5033297;28;20085;-67
2022/03/27 10:29:08;;;;;;;16.38;4.45;;;20.20;78.00;;;;;;5020579;28;20030;-66
2022/03/27 10:31:34;;;;;;;15.13;4.60;;;20.10;75.10;;;;;;5034947;28;20072;-66
2022/03/27 10:34:01;;;;;;;14.52;4.10;;;20.50;77.80;;;;;;5034645;28;20044;-69
2022/03/27 10:36:47;;;;;;;15.32;4.40;;;20.20;77.80;;;;;;5017155;28;20053;-68
2022/03/27 10:39:43;;;;;;;18.90;4.70;;;20.30;77.80;;;;;;5016450;28;20060;-67
2022/03/27 10:42:27;;;;;;;11.02;3.95;;;20.20;78.00;;;;;;5032131;28;20080;-68
2022/03/27 10:45:18;;;;;;;15.55;4.57;;;20.30;78.50;;;;;;5007832;28;20046;-67
2022/03/27 10:47:45;;;;;;;16.48;4.60;;;20.60;78.80;;;;;;5014889;28;20117;-68
2022/03/27 10:50:21;;;;;;;16.13;5.05;;;20.60;78.80;;;;;;4981149;28;20072;-68
2022/03/27 10:52:50;;;;;;;15.25;4.20;;;20.50;76.70;;;;;;5019712;28;20045;-68
2022/03/27 10:55:16;;;;;;;15.23;4.22;;;20.60;79.20;;;;;;5034100;28;20049;-68
2022/03/27 10:57:46;;;;;;;14.77;4.03;;;20.20;75.90;;;;;;5034532;28;20172;-68
2022/03/27 11:00:13;;;;;;;12.07;4.03;;;20.80;79.50;;;;;;5034099;28;20475;-68
2022/03/27 11:02:53;;;;;;;13.68;4.70;;;20.70;79.40;;;;;;5017284;28;20072;-68
2022/03/27 11:05:36;;;;;;;12.35;4.15;;;20.80;79.60;;;;;;5031792;28;20037;-68
2022/03/27 11:08:18;;;;;;;13.02;4.32;;;20.80;79.80;;;;;;5034015;28;20060;-68
2022/03/27 11:10:44;;;;;;;14.25;4.78;;;20.70;79.60;;;;;;5034217;28;20407;-66
2022/03/27 11:13:25;;;;;;;13.02;4.10;;;20.80;78.70;;;;;;5033985;28;20053;-66
2022/03/27 11:16:04;;;;;;;16.20;4.30;;;21.00;79.70;;;;;;5011306;28;20518;-66
2022/03/27 11:18:41;;;;;;;14.23;4.28;;;21.00;77.40;;;;;;5005259;28;20515;-66
2022/03/27 11:21:08;;;;;;;14.43;4.28;;;20.70;79.50;;;;;;5033718;28;20060;-66
2022/03/27 11:23:37;;;;;;;12.63;3.92;;;21.00;76.30;;;;;;5033738;28;20049;-68
2022/03/27 11:26:24;;;;;;;15.55;4.40;;;21.00;76.30;;;;;;5033599;28;20046;-67
2022/03/27 11:28:52;;;;;;;15.73;4.43;;;20.80;79.00;;;;;;5012216;28;20176;-66
2022/03/27 11:31:18;;;;;;;13.70;4.15;;;20.80;79.40;;;;;;5033658;28;20049;-62
2022/03/27 11:34:04;;;;;;;15.27;4.68;;;21.00;79.50;;;;;;5033470;28;20045;-62
2022/03/27 11:36:31;;;;;;;15.02;3.92;;;20.80;78.00;;;;;;5014707;28;20046;-62
2022/03/27 11:39:08;;;;;;;21.27;5.32;;;20.90;79.40;;;;;;5033418;28;20041;-62
2022/03/27 11:41:44;;;;;;;15.18;4.22;;;21.10;78.10;;;;;;5033804;28;20498;-63
2022/03/27 11:45:06;;;;;;;17.95;4.25;;;21.10;79.60;;;;;;5015923;28;20087;-62
2022/03/27 11:47:11;;;;;;;15.35;3.88;;;21.00;79.30;;;;;;5033679;28;20427;-62
2022/03/27 11:49:41;;;;;;;16.65;4.82;;;21.10;79.30;;;;;;5000627;28;20057;-63
2022/03/27 11:52:08;;;;;;;12.00;4.32;;;21.10;75.90;;;;;;5010503;28;20049;-61
2022/03/27 11:54:34;;;;;;;11.70;3.90;;;21.10;76.60;;;;;;5013470;28;20068;-62
2022/03/27 11:57:01;;;;;;;15.15;4.20;;;21.30;79.60;;;;;;5013879;28;20045;-62
2022/03/27 11:59:27;;;;;;;14.13;3.95;;;;;;;;;;5029888;28;20053;-69
2022/03/27 12:01:57;;;;;;;16.30;4.13;;;21.20;79.90;;;;;;5032609;28;20096;-65
2022/03/27 12:04:26;;;;;;;16.38;4.90;;;21.10;79.20;;;;;;5029707;28;20452;-67
2022/03/27 12:06:56;;;;;;;16.25;4.13;;;21.00;79.10;;;;;;5013402;28;20045;-68
2022/03/27 12:09:29;;;;;;;18.08;5.07;;;21.00;78.70;;;;;;5000342;28;20053;-68
2022/03/27 12:12:05;;;;;;;15.27;4.32;;;21.10;76.40;;;;;;4995644;28;20054;-68
2022/03/27 12:14:31;;;;;;;17.23;4.80;;;21.20;78.60;;;;;;5013604;28;20046;-67
2022/03/27 12:16:57;;;;;;;21.23;4.93;;;21.00;75.60;;;;;;5012055;28;20069;-63
2022/03/27 12:19:22;;;;;;;15.07;4.15;;;20.90;78.50;;;;;;5013667;28;20046;-67
2022/03/27 12:21:48;;;;;;;13.30;3.78;;;21.20;78.80;;;;;;5012222;28;20462;-62
2022/03/27 12:24:16;;;;;;;14.38;4.32;;;21.20;78.60;;;;;;5013573;28;20046;-62
2022/03/27 12:29:50;;;;;;;12.18;4.00;;;21.10;75.00;;;;;;5017272;28;20112;-62
2022/03/27 12:32:25;;;;;;;16.70;4.35;;;21.00;78.90;;;;;;5017425;28;20049;-62
2022/03/27 12:34:53;;;;;;;18.30;4.50;;;21.10;78.80;;;;;;5001089;28;20050;-68
2022/03/27 12:37:26;;;;;;;13.27;3.85;;;21.30;79.10;;;;;;5017119;28;20048;-68
2022/03/27 12:39:51;;;;;;;;;;;21.10;76.50;;;;;;5025284;28;20049;-68
2022/03/27 12:42:30;;;;;;;12.75;3.58;;;21.20;78.90;;;;;;5036677;28;19921;-68
2022/03/27 12:45:21;;;;;;;11.55;3.22;;;21.10;78.90;;;;;;5036979;28;20115;-68
2022/03/27 12:47:52;;;;;;;12.60;3.63;;;21.10;74.50;;;;;;5018471;28;20057;-68
2022/03/27 12:50:31;;;;;;;13.50;3.67;;;21.20;78.90;;;;;;5035801;28;20049;-68
2022/03/27 12:52:59;;;;;;;13.45;3.10;;;21.40;78.80;;;;;;5036587;28;20053;-68
2022/03/27 12:55:28;;;;;;;12.18;3.75;;;21.30;79.30;;;;;;5036689;28;20056;-68
2022/03/27 12:57:58;;;;;;;10.68;3.40;;;21.30;79.20;;;;;;5036662;28;20087;-68
2022/03/27 13:00:29;;;;;;;10.82;3.20;;;21.30;79.20;;;;;;5035844;28;20067;-68
2022/03/27 13:03:13;;;;;;;11.65;4.18;;;21.10;78.90;;;;;;5036665;28;20050;-68
2022/03/27 13:05:40;;;;;;;10.63;3.47;;;21.20;78.80;;;;;;5037012;28;20080;-68